sensor_id;sensor_type;location;lat;lon;timestamp;temperature;humidity
44190;DHT22;29856;52.144;5.430;2023-01-29T00:02:24;6.20;99.90
44190;DHT22;29856;52.144;5.430;2023-01-29T00:04:55;6.20;99.90
44190;DHT22;29856;52.144;5.430;2023-01-29T00:07:20;6.20;99.90
44190;DHT22;29856;52.144;5.430;2023-01-29T00:09:46;6.10;99.90
44190;DHT22;29856;52.144;5.430;2023-01-29T00:12:11;6.10;99.90
44190;DHT22;29856;52.144;5.430;2023-01-29T00:14:37;6.10;99.90
44190;DHT22;29856;52.144;5.430;2023-01-29T00:17:02;6.10;99.90
44190;DHT22;29856;52.144;5.430;2023-01-29T00:19:28;6.20;99.90
44190;DHT22;29856;52.144;5.430;2023-01-29T00:21:53;6.10;99.90
44190;DHT22;29856;52.144;5.430;2023-01-29T00:24:19;6.20;99.90
44190;DHT22;29856;52.144;5.430;2023-01-29T00:26:44;6.10;99.90
44190;DHT22;29856;52.144;5.430;2023-01-29T00:29:10;5.90;99.90
44190;DHT22;29856;52.144;5.430;2023-01-29T00:31:36;5.90;99.90
44190;DHT22;29856;52.144;5.430;2023-01-29T00:34:01;5.80;99.90
44190;DHT22;29856;52.144;5.430;2023-01-29T00:36:27;5.70;99.90
44190;DHT22;29856;52.144;5.430;2023-01-29T00:38:57;5.50;99.90
44190;DHT22;29856;52.144;5.430;2023-01-29T00:41:27;5.50;99.90
44190;DHT22;29856;52.144;5.430;2023-01-29T00:43:52;5.50;99.90
44190;DHT22;29856;52.144;5.430;2023-01-29T00:46:18;5.50;99.90
44190;DHT22;29856;52.144;5.430;2023-01-29T00:48:43;5.40;99.90
44190;DHT22;29856;52.144;5.430;2023-01-29T00:51:09;5.50;99.90
44190;DHT22;29856;52.144;5.430;2023-01-29T00:53:34;5.50;99.90
44190;DHT22;29856;52.144;5.430;2023-01-29T00:56:00;5.60;99.90
44190;DHT22;29856;52.144;5.430;2023-01-29T00:58:25;5.70;99.90
44190;DHT22;29856;52.144;5.430;2023-01-29T01:00:51;5.70;99.90
44190;DHT22;29856;52.144;5.430;2023-01-29T01:03:16;5.60;99.90
44190;DHT22;29856;52.144;5.430;2023-01-29T01:05:42;5.70;99.90
44190;DHT22;29856;52.144;5.430;2023-01-29T01:08:09;5.70;99.90
44190;DHT22;29856;52.144;5.430;2023-01-29T01:10:34;5.90;99.90
44190;DHT22;29856;52.144;5.430;2023-01-29T01:13:02;5.80;99.90
44190;DHT22;29856;52.144;5.430;2023-01-29T01:15:32;6.00;99.90
44190;DHT22;29856;52.144;5.430;2023-01-29T01:17:59;6.20;99.90
44190;DHT22;29856;52.144;5.430;2023-01-29T01:20:27;6.20;99.90
44190;DHT22;29856;52.144;5.430;2023-01-29T01:22:53;6.30;99.90
44190;DHT22;29856;52.144;5.430;2023-01-29T01:25:19;6.30;99.90
44190;DHT22;29856;52.144;5.430;2023-01-29T01:27:45;6.20;99.90
44190;DHT22;29856;52.144;5.430;2023-01-29T01:30:15;6.30;99.90
44190;DHT22;29856;52.144;5.430;2023-01-29T01:32:41;6.30;99.90
44190;DHT22;29856;52.144;5.430;2023-01-29T01:35:08;6.20;99.90
44190;DHT22;29856;52.144;5.430;2023-01-29T01:37:33;6.30;99.90
44190;DHT22;29856;52.144;5.430;2023-01-29T01:39:59;6.40;99.90
44190;DHT22;29856;52.144;5.430;2023-01-29T01:42:30;6.50;99.90
44190;DHT22;29856;52.144;5.430;2023-01-29T01:45:01;6.60;99.90
44190;DHT22;29856;52.144;5.430;2023-01-29T01:47:34;6.60;99.90
44190;DHT22;29856;52.144;5.430;2023-01-29T01:50:06;6.50;99.90
44190;DHT22;29856;52.144;5.430;2023-01-29T01:52:35;6.40;99.90
44190;DHT22;29856;52.144;5.430;2023-01-29T01:55:02;6.40;99.90
44190;DHT22;29856;52.144;5.430;2023-01-29T01:57:30;6.40;99.90
44190;DHT22;29856;52.144;5.430;2023-01-29T02:00:02;6.40;99.90
44190;DHT22;29856;52.144;5.430;2023-01-29T02:02:28;6.50;99.90
44190;DHT22;29856;52.144;5.430;2023-01-29T02:04:53;6.50;99.90
44190;DHT22;29856;52.144;5.430;2023-01-29T02:07:19;6.50;99.90
44190;DHT22;29856;52.144;5.430;2023-01-29T02:10:11;6.40;99.90
44190;DHT22;29856;52.144;5.430;2023-01-29T02:12:38;6.40;99.90
44190;DHT22;29856;52.144;5.430;2023-01-29T02:15:05;6.40;99.90
44190;DHT22;29856;52.144;5.430;2023-01-29T02:17:31;6.50;99.90
44190;DHT22;29856;52.144;5.430;2023-01-29T02:20:06;6.40;99.90
44190;DHT22;29856;52.144;5.430;2023-01-29T02:25:34;6.40;99.90
44190;DHT22;29856;52.144;5.430;2023-01-29T02:31:08;6.40;99.90
44190;DHT22;29856;52.144;5.430;2023-01-29T02:37:00;6.40;99.90
44190;DHT22;29856;52.144;5.430;2023-01-29T02:39:32;6.40;99.90
44190;DHT22;29856;52.144;5.430;2023-01-29T02:44:39;6.20;99.90
44190;DHT22;29856;52.144;5.430;2023-01-29T02:47:29;6.10;99.90
44190;DHT22;29856;52.144;5.430;2023-01-29T02:50:03;6.00;99.90
44190;DHT22;29856;52.144;5.430;2023-01-29T02:55:24;6.00;99.90
44190;DHT22;29856;52.144;5.430;2023-01-29T02:57:56;6.00;99.90
44190;DHT22;29856;52.144;5.430;2023-01-29T03:00:29;6.00;99.90
44190;DHT22;29856;52.144;5.430;2023-01-29T03:06:14;6.10;99.90
44190;DHT22;29856;52.144;5.430;2023-01-29T03:08:40;6.10;99.90
44190;DHT22;29856;52.144;5.430;2023-01-29T03:11:06;6.10;99.90
44190;DHT22;29856;52.144;5.430;2023-01-29T03:13:55;6.10;99.90
44190;DHT22;29856;52.144;5.430;2023-01-29T03:18:56;6.20;99.90
44190;DHT22;29856;52.144;5.430;2023-01-29T03:21:42;6.20;99.90
44190;DHT22;29856;52.144;5.430;2023-01-29T03:24:10;6.10;99.90
44190;DHT22;29856;52.144;5.430;2023-01-29T03:26:37;6.20;99.90
44190;DHT22;29856;52.144;5.430;2023-01-29T03:29:05;6.20;99.90
44190;DHT22;29856;52.144;5.430;2023-01-29T03:31:31;6.20;99.90
44190;DHT22;29856;52.144;5.430;2023-01-29T03:36:39;6.30;99.90
44190;DHT22;29856;52.144;5.430;2023-01-29T03:39:07;6.20;99.90
44190;DHT22;29856;52.144;5.430;2023-01-29T03:41:44;6.20;99.90
44190;DHT22;29856;52.144;5.430;2023-01-29T03:44:20;6.20;99.90
44190;DHT22;29856;52.144;5.430;2023-01-29T03:46:58;6.20;99.90
44190;DHT22;29856;52.144;5.430;2023-01-29T03:52:25;6.30;99.90
44190;DHT22;29856;52.144;5.430;2023-01-29T03:55:01;6.20;99.90
44190;DHT22;29856;52.144;5.430;2023-01-29T03:57:40;6.20;99.90
44190;DHT22;29856;52.144;5.430;2023-01-29T04:02:48;6.20;99.90
44190;DHT22;29856;52.144;5.430;2023-01-29T04:05:26;6.20;99.90
44190;DHT22;29856;52.144;5.430;2023-01-29T04:08:00;6.40;99.90
44190;DHT22;29856;52.144;5.430;2023-01-29T04:10:28;6.30;99.90
44190;DHT22;29856;52.144;5.430;2023-01-29T04:12:58;6.20;99.90
44190;DHT22;29856;52.144;5.430;2023-01-29T04:15:27;6.20;99.90
44190;DHT22;29856;52.144;5.430;2023-01-29T04:17:54;6.20;99.90
44190;DHT22;29856;52.144;5.430;2023-01-29T04:20:20;6.10;99.90
44190;DHT22;29856;52.144;5.430;2023-01-29T04:22:49;6.10;99.90
44190;DHT22;29856;52.144;5.430;2023-01-29T04:25:21;6.00;99.90
44190;DHT22;29856;52.144;5.430;2023-01-29T04:28:06;6.00;99.90
44190;DHT22;29856;52.144;5.430;2023-01-29T04:30:57;6.00;99.90
44190;DHT22;29856;52.144;5.430;2023-01-29T04:33:33;6.00;99.90
44190;DHT22;29856;52.144;5.430;2023-01-29T04:39:07;6.10;99.90
44190;DHT22;29856;52.144;5.430;2023-01-29T04:41:46;6.00;99.90
44190;DHT22;29856;52.144;5.430;2023-01-29T04:44:32;6.10;99.90
44190;DHT22;29856;52.144;5.430;2023-01-29T04:55:04;5.90;99.90
44190;DHT22;29856;52.144;5.430;2023-01-29T04:57:46;5.80;99.90
44190;DHT22;29856;52.144;5.430;2023-01-29T05:00:17;5.80;99.90
44190;DHT22;29856;52.144;5.430;2023-01-29T05:02:45;5.80;99.90
44190;DHT22;29856;52.144;5.430;2023-01-29T05:05:12;5.70;99.90
44190;DHT22;29856;52.144;5.430;2023-01-29T05:07:39;5.70;99.90
44190;DHT22;29856;52.144;5.430;2023-01-29T05:10:07;5.80;99.90
44190;DHT22;29856;52.144;5.430;2023-01-29T05:12:36;5.80;99.90
44190;DHT22;29856;52.144;5.430;2023-01-29T05:15:07;5.90;99.90
44190;DHT22;29856;52.144;5.430;2023-01-29T05:17:34;6.00;99.90
44190;DHT22;29856;52.144;5.430;2023-01-29T05:20:00;5.90;99.90
44190;DHT22;29856;52.144;5.430;2023-01-29T05:22:26;5.80;99.90
44190;DHT22;29856;52.144;5.430;2023-01-29T05:24:51;5.90;99.90
44190;DHT22;29856;52.144;5.430;2023-01-29T05:27:25;5.90;99.90
44190;DHT22;29856;52.144;5.430;2023-01-29T05:29:53;5.90;99.90
44190;DHT22;29856;52.144;5.430;2023-01-29T05:32:18;6.00;99.90
44190;DHT22;29856;52.144;5.430;2023-01-29T05:34:44;5.90;99.90
44190;DHT22;29856;52.144;5.430;2023-01-29T05:37:10;5.90;99.90
44190;DHT22;29856;52.144;5.430;2023-01-29T05:39:35;6.00;99.90
44190;DHT22;29856;52.144;5.430;2023-01-29T05:42:01;5.90;99.90
44190;DHT22;29856;52.144;5.430;2023-01-29T05:44:26;6.00;99.90
44190;DHT22;29856;52.144;5.430;2023-01-29T05:46:52;6.00;99.90
44190;DHT22;29856;52.144;5.430;2023-01-29T05:49:17;6.10;99.90
44190;DHT22;29856;52.144;5.430;2023-01-29T05:51:43;5.90;99.90
44190;DHT22;29856;52.144;5.430;2023-01-29T05:54:12;5.90;99.90
44190;DHT22;29856;52.144;5.430;2023-01-29T05:56:38;6.00;99.90
44190;DHT22;29856;52.144;5.430;2023-01-29T05:59:04;6.00;99.90
44190;DHT22;29856;52.144;5.430;2023-01-29T06:01:29;5.90;99.90
44190;DHT22;29856;52.144;5.430;2023-01-29T06:03:54;5.80;99.90
44190;DHT22;29856;52.144;5.430;2023-01-29T06:06:20;5.80;99.90
44190;DHT22;29856;52.144;5.430;2023-01-29T06:08:46;5.90;99.90
44190;DHT22;29856;52.144;5.430;2023-01-29T06:11:13;6.00;99.90
44190;DHT22;29856;52.144;5.430;2023-01-29T06:13:39;5.90;99.90
44190;DHT22;29856;52.144;5.430;2023-01-29T06:16:08;5.80;99.90
44190;DHT22;29856;52.144;5.430;2023-01-29T06:18:35;5.70;99.90
44190;DHT22;29856;52.144;5.430;2023-01-29T06:21:05;5.70;99.90
44190;DHT22;29856;52.144;5.430;2023-01-29T06:23:31;5.70;99.90
44190;DHT22;29856;52.144;5.430;2023-01-29T06:26:14;5.70;99.90
44190;DHT22;29856;52.144;5.430;2023-01-29T06:28:41;5.70;99.90
44190;DHT22;29856;52.144;5.430;2023-01-29T06:31:07;5.70;99.90
44190;DHT22;29856;52.144;5.430;2023-01-29T06:33:32;5.80;99.90
44190;DHT22;29856;52.144;5.430;2023-01-29T06:36:00;5.80;99.90
44190;DHT22;29856;52.144;5.430;2023-01-29T06:38:26;5.70;99.90
44190;DHT22;29856;52.144;5.430;2023-01-29T06:40:52;5.60;99.90
44190;DHT22;29856;52.144;5.430;2023-01-29T06:43:18;5.50;99.90
44190;DHT22;29856;52.144;5.430;2023-01-29T06:45:52;5.50;99.90
44190;DHT22;29856;52.144;5.430;2023-01-29T06:48:18;5.60;99.90
44190;DHT22;29856;52.144;5.430;2023-01-29T06:50:44;5.50;99.90
44190;DHT22;29856;52.144;5.430;2023-01-29T06:53:10;5.60;99.90
44190;DHT22;29856;52.144;5.430;2023-01-29T06:55:35;5.60;99.90
44190;DHT22;29856;52.144;5.430;2023-01-29T06:58:05;5.60;99.90
44190;DHT22;29856;52.144;5.430;2023-01-29T07:00:31;5.60;99.90
44190;DHT22;29856;52.144;5.430;2023-01-29T07:02:56;5.60;99.90
44190;DHT22;29856;52.144;5.430;2023-01-29T07:05:22;5.60;99.90
44190;DHT22;29856;52.144;5.430;2023-01-29T07:07:47;5.60;99.90
44190;DHT22;29856;52.144;5.430;2023-01-29T07:10:13;5.60;99.90
44190;DHT22;29856;52.144;5.430;2023-01-29T07:12:38;5.60;99.90
44190;DHT22;29856;52.144;5.430;2023-01-29T07:15:04;5.50;99.90
44190;DHT22;29856;52.144;5.430;2023-01-29T07:17:30;5.60;99.90
44190;DHT22;29856;52.144;5.430;2023-01-29T07:19:55;5.60;99.90
44190;DHT22;29856;52.144;5.430;2023-01-29T07:22:21;5.60;99.90
44190;DHT22;29856;52.144;5.430;2023-01-29T07:24:46;5.50;99.90
44190;DHT22;29856;52.144;5.430;2023-01-29T07:27:12;5.60;99.90
44190;DHT22;29856;52.144;5.430;2023-01-29T07:29:37;5.50;99.90
44190;DHT22;29856;52.144;5.430;2023-01-29T07:32:03;5.40;99.90
44190;DHT22;29856;52.144;5.430;2023-01-29T07:34:28;5.40;99.90
44190;DHT22;29856;52.144;5.430;2023-01-29T07:36:54;5.50;99.90
44190;DHT22;29856;52.144;5.430;2023-01-29T07:39:19;5.50;99.90
44190;DHT22;29856;52.144;5.430;2023-01-29T07:41:45;5.60;99.90
44190;DHT22;29856;52.144;5.430;2023-01-29T07:44:10;5.60;99.90
44190;DHT22;29856;52.144;5.430;2023-01-29T07:46:36;5.70;99.90
44190;DHT22;29856;52.144;5.430;2023-01-29T07:49:01;5.60;99.90
44190;DHT22;29856;52.144;5.430;2023-01-29T07:51:26;5.70;99.90
44190;DHT22;29856;52.144;5.430;2023-01-29T07:53:52;5.60;99.90
44190;DHT22;29856;52.144;5.430;2023-01-29T07:56:17;5.70;99.90
44190;DHT22;29856;52.144;5.430;2023-01-29T07:58:43;5.60;99.90
44190;DHT22;29856;52.144;5.430;2023-01-29T08:01:09;5.50;99.90
44190;DHT22;29856;52.144;5.430;2023-01-29T08:03:34;5.50;99.90
44190;DHT22;29856;52.144;5.430;2023-01-29T08:06:01;5.50;99.90
44190;DHT22;29856;52.144;5.430;2023-01-29T08:08:27;5.50;99.90
44190;DHT22;29856;52.144;5.430;2023-01-29T08:10:52;5.40;99.90
44190;DHT22;29856;52.144;5.430;2023-01-29T08:13:18;5.40;99.90
44190;DHT22;29856;52.144;5.430;2023-01-29T08:15:43;5.40;99.90
44190;DHT22;29856;52.144;5.430;2023-01-29T08:18:09;5.40;99.90
44190;DHT22;29856;52.144;5.430;2023-01-29T08:20:34;5.40;99.90
44190;DHT22;29856;52.144;5.430;2023-01-29T08:23:01;5.50;99.90
44190;DHT22;29856;52.144;5.430;2023-01-29T08:25:27;5.60;99.90
44190;DHT22;29856;52.144;5.430;2023-01-29T08:27:52;5.60;99.90
44190;DHT22;29856;52.144;5.430;2023-01-29T08:30:18;5.60;99.90
44190;DHT22;29856;52.144;5.430;2023-01-29T08:32:43;5.60;99.90
44190;DHT22;29856;52.144;5.430;2023-01-29T08:35:09;5.50;99.90
44190;DHT22;29856;52.144;5.430;2023-01-29T08:37:34;5.60;99.90
44190;DHT22;29856;52.144;5.430;2023-01-29T08:40:00;5.70;99.90
44190;DHT22;29856;52.144;5.430;2023-01-29T08:42:25;5.70;99.90
44190;DHT22;29856;52.144;5.430;2023-01-29T08:44:50;5.60;99.90
44190;DHT22;29856;52.144;5.430;2023-01-29T08:47:16;5.60;99.90
44190;DHT22;29856;52.144;5.430;2023-01-29T08:49:41;5.60;99.90
44190;DHT22;29856;52.144;5.430;2023-01-29T08:52:07;5.60;99.90
44190;DHT22;29856;52.144;5.430;2023-01-29T08:54:32;5.50;99.90
44190;DHT22;29856;52.144;5.430;2023-01-29T08:56:58;5.50;99.90
44190;DHT22;29856;52.144;5.430;2023-01-29T08:59:23;5.50;99.90
44190;DHT22;29856;52.144;5.430;2023-01-29T09:01:49;5.50;99.90
44190;DHT22;29856;52.144;5.430;2023-01-29T09:04:14;5.50;99.90
44190;DHT22;29856;52.144;5.430;2023-01-29T09:06:39;5.50;99.90
44190;DHT22;29856;52.144;5.430;2023-01-29T09:09:05;5.60;99.90
44190;DHT22;29856;52.144;5.430;2023-01-29T09:11:31;5.60;99.90
44190;DHT22;29856;52.144;5.430;2023-01-29T09:13:56;5.60;99.90
44190;DHT22;29856;52.144;5.430;2023-01-29T09:16:21;5.50;99.90
44190;DHT22;29856;52.144;5.430;2023-01-29T09:18:47;5.60;99.90
44190;DHT22;29856;52.144;5.430;2023-01-29T09:21:12;5.60;99.90
44190;DHT22;29856;52.144;5.430;2023-01-29T09:23:38;5.60;99.90
44190;DHT22;29856;52.144;5.430;2023-01-29T09:26:03;5.50;99.90
44190;DHT22;29856;52.144;5.430;2023-01-29T09:28:29;5.40;99.90
44190;DHT22;29856;52.144;5.430;2023-01-29T09:30:54;5.50;99.90
44190;DHT22;29856;52.144;5.430;2023-01-29T09:33:20;5.50;99.90
44190;DHT22;29856;52.144;5.430;2023-01-29T09:35:45;5.70;99.90
44190;DHT22;29856;52.144;5.430;2023-01-29T09:38:11;5.60;99.90
44190;DHT22;29856;52.144;5.430;2023-01-29T09:40:48;5.60;99.90
44190;DHT22;29856;52.144;5.430;2023-01-29T09:43:39;5.80;99.90
44190;DHT22;29856;52.144;5.430;2023-01-29T09:46:59;5.80;99.90
44190;DHT22;29856;52.144;5.430;2023-01-29T09:49:13;5.80;99.90
44190;DHT22;29856;52.144;5.430;2023-01-29T09:51:42;5.80;99.90
44190;DHT22;29856;52.144;5.430;2023-01-29T09:54:22;5.70;99.90
44190;DHT22;29856;52.144;5.430;2023-01-29T09:56:54;5.80;99.90
44190;DHT22;29856;52.144;5.430;2023-01-29T09:59:22;5.90;99.90
44190;DHT22;29856;52.144;5.430;2023-01-29T10:01:58;5.80;99.90
44190;DHT22;29856;52.144;5.430;2023-01-29T10:07:17;5.90;99.90
44190;DHT22;29856;52.144;5.430;2023-01-29T10:15:16;6.00;99.90
44190;DHT22;29856;52.144;5.430;2023-01-29T10:23:15;6.10;99.90
44190;DHT22;29856;52.144;5.430;2023-01-29T10:25:44;6.10;99.90
44190;DHT22;29856;52.144;5.430;2023-01-29T10:28:36;6.10;99.90
44190;DHT22;29856;52.144;5.430;2023-01-29T10:31:09;6.10;99.90
44190;DHT22;29856;52.144;5.430;2023-01-29T10:33:40;6.10;99.90
44190;DHT22;29856;52.144;5.430;2023-01-29T10:36:10;6.10;99.90
44190;DHT22;29856;52.144;5.430;2023-01-29T10:38:45;6.00;99.90
44190;DHT22;29856;52.144;5.430;2023-01-29T10:44:25;5.90;99.90
44190;DHT22;29856;52.144;5.430;2023-01-29T10:55:55;6.00;99.90
44190;DHT22;29856;52.144;5.430;2023-01-29T11:00:51;6.10;99.90
44190;DHT22;29856;52.144;5.430;2023-01-29T11:03:26;6.20;99.90
44190;DHT22;29856;52.144;5.430;2023-01-29T11:11:48;6.10;99.90
44190;DHT22;29856;52.144;5.430;2023-01-29T11:17:03;6.20;99.90
44190;DHT22;29856;52.144;5.430;2023-01-29T11:19:40;6.20;99.90
44190;DHT22;29856;52.144;5.430;2023-01-29T11:22:13;6.20;99.90
44190;DHT22;29856;52.144;5.430;2023-01-29T11:24:39;6.20;99.90
44190;DHT22;29856;52.144;5.430;2023-01-29T11:27:14;6.20;99.90
44190;DHT22;29856;52.144;5.430;2023-01-29T11:29:44;6.20;99.90
44190;DHT22;29856;52.144;5.430;2023-01-29T11:37:40;6.10;99.90
44190;DHT22;29856;52.144;5.430;2023-01-29T11:42:47;6.10;99.90
44190;DHT22;29856;52.144;5.430;2023-01-29T11:47:53;6.00;99.90
44190;DHT22;29856;52.144;5.430;2023-01-29T11:50:22;6.00;99.90
44190;DHT22;29856;52.144;5.430;2023-01-29T11:52:48;5.90;99.90
44190;DHT22;29856;52.144;5.430;2023-01-29T11:55:19;5.90;99.90
44190;DHT22;29856;52.144;5.430;2023-01-29T11:57:49;6.00;99.90
44190;DHT22;29856;52.144;5.430;2023-01-29T12:00:24;6.00;99.90
44190;DHT22;29856;52.144;5.430;2023-01-29T12:03:04;6.00;99.90
44190;DHT22;29856;52.144;5.430;2023-01-29T12:05:31;6.00;99.90
44190;DHT22;29856;52.144;5.430;2023-01-29T12:07:58;6.00;99.90
44190;DHT22;29856;52.144;5.430;2023-01-29T12:10:29;6.00;99.90
44190;DHT22;29856;52.144;5.430;2023-01-29T12:15:31;6.00;99.90
44190;DHT22;29856;52.144;5.430;2023-01-29T12:20:34;6.00;99.90
44190;DHT22;29856;52.144;5.430;2023-01-29T12:25:48;6.10;99.90
44190;DHT22;29856;52.144;5.430;2023-01-29T12:28:33;6.00;99.90
44190;DHT22;29856;52.144;5.430;2023-01-29T12:31:18;6.00;99.90
44190;DHT22;29856;52.144;5.430;2023-01-29T12:34:09;5.90;99.90
44190;DHT22;29856;52.144;5.430;2023-01-29T12:36:58;6.00;99.90
44190;DHT22;29856;52.144;5.430;2023-01-29T12:39:25;6.00;99.90
44190;DHT22;29856;52.144;5.430;2023-01-29T12:42:11;6.10;99.90
44190;DHT22;29856;52.144;5.430;2023-01-29T12:44:41;6.00;99.90
44190;DHT22;29856;52.144;5.430;2023-01-29T12:50:01;6.00;99.90
44190;DHT22;29856;52.144;5.430;2023-01-29T12:55:50;6.10;99.90
44190;DHT22;29856;52.144;5.430;2023-01-29T12:58:08;6.10;99.90
44190;DHT22;29856;52.144;5.430;2023-01-29T13:00:39;5.90;99.90
44190;DHT22;29856;52.144;5.430;2023-01-29T13:06:14;6.00;99.90
44190;DHT22;29856;52.144;5.430;2023-01-29T13:08:48;6.00;99.90
44190;DHT22;29856;52.144;5.430;2023-01-29T13:11:25;5.90;99.90
44190;DHT22;29856;52.144;5.430;2023-01-29T13:14:03;6.00;99.90
44190;DHT22;29856;52.144;5.430;2023-01-29T13:16:42;6.00;99.90
44190;DHT22;29856;52.144;5.430;2023-01-29T13:19:30;6.00;99.90
44190;DHT22;29856;52.144;5.430;2023-01-29T13:21:59;6.00;99.90
44190;DHT22;29856;52.144;5.430;2023-01-29T13:24:39;6.00;99.90
44190;DHT22;29856;52.144;5.430;2023-01-29T13:27:05;6.10;99.90
44190;DHT22;29856;52.144;5.430;2023-01-29T13:29:31;6.10;99.90
44190;DHT22;29856;52.144;5.430;2023-01-29T13:32:02;6.20;99.90
44190;DHT22;29856;52.144;5.430;2023-01-29T13:34:31;6.20;99.90
44190;DHT22;29856;52.144;5.430;2023-01-29T13:37:00;6.30;99.90
44190;DHT22;29856;52.144;5.430;2023-01-29T13:39:32;6.30;99.90
44190;DHT22;29856;52.144;5.430;2023-01-29T13:41:59;6.30;99.90
44190;DHT22;29856;52.144;5.430;2023-01-29T13:44:34;6.30;99.90
44190;DHT22;29856;52.144;5.430;2023-01-29T13:47:06;6.30;99.90
44190;DHT22;29856;52.144;5.430;2023-01-29T13:49:39;6.40;99.90
44190;DHT22;29856;52.144;5.430;2023-01-29T13:52:15;6.40;99.90
44190;DHT22;29856;52.144;5.430;2023-01-29T13:54:50;6.40;99.90
44190;DHT22;29856;52.144;5.430;2023-01-29T13:57:31;6.40;99.90
44190;DHT22;29856;52.144;5.430;2023-01-29T13:59:58;6.40;99.90
44190;DHT22;29856;52.144;5.430;2023-01-29T14:02:28;6.40;99.90
44190;DHT22;29856;52.144;5.430;2023-01-29T14:08:01;6.50;99.90
44190;DHT22;29856;52.144;5.430;2023-01-29T14:10:29;6.50;99.90
44190;DHT22;29856;52.144;5.430;2023-01-29T14:15:36;6.60;99.90
44190;DHT22;29856;52.144;5.430;2023-01-29T14:20:38;6.70;99.90
44190;DHT22;29856;52.144;5.430;2023-01-29T14:23:04;6.70;99.90
44190;DHT22;29856;52.144;5.430;2023-01-29T14:25:33;6.70;99.90
44190;DHT22;29856;52.144;5.430;2023-01-29T14:28:00;6.80;99.90
44190;DHT22;29856;52.144;5.430;2023-01-29T14:30:30;6.70;99.90
44190;DHT22;29856;52.144;5.430;2023-01-29T14:32:56;6.70;99.90
44190;DHT22;29856;52.144;5.430;2023-01-29T14:35:27;6.70;99.90
44190;DHT22;29856;52.144;5.430;2023-01-29T14:37:57;6.70;99.90
44190;DHT22;29856;52.144;5.430;2023-01-29T14:40:25;6.70;99.90
44190;DHT22;29856;52.144;5.430;2023-01-29T14:43:08;6.70;99.90
44190;DHT22;29856;52.144;5.430;2023-01-29T14:45:40;6.70;99.90
44190;DHT22;29856;52.144;5.430;2023-01-29T14:53:08;6.70;99.90
44190;DHT22;29856;52.144;5.430;2023-01-29T14:58:15;6.80;99.90
44190;DHT22;29856;52.144;5.430;2023-01-29T15:00:44;6.70;99.90
44190;DHT22;29856;52.144;5.430;2023-01-29T15:03:19;6.70;99.90
44190;DHT22;29856;52.144;5.430;2023-01-29T15:05:48;6.70;99.90
44190;DHT22;29856;52.144;5.430;2023-01-29T15:08:22;6.70;99.90
44190;DHT22;29856;52.144;5.430;2023-01-29T15:10:53;6.70;99.90
44190;DHT22;29856;52.144;5.430;2023-01-29T15:13:36;6.60;99.90
44190;DHT22;29856;52.144;5.430;2023-01-29T15:16:16;6.60;99.90
44190;DHT22;29856;52.144;5.430;2023-01-29T15:18:43;6.60;99.90
44190;DHT22;29856;52.144;5.430;2023-01-29T15:21:13;6.60;99.90
44190;DHT22;29856;52.144;5.430;2023-01-29T15:23:39;6.60;99.90
44190;DHT22;29856;52.144;5.430;2023-01-29T15:26:07;6.60;99.90
44190;DHT22;29856;52.144;5.430;2023-01-29T15:28:34;6.60;99.90
44190;DHT22;29856;52.144;5.430;2023-01-29T15:31:02;6.60;99.90
44190;DHT22;29856;52.144;5.430;2023-01-29T15:33:29;6.60;99.90
44190;DHT22;29856;52.144;5.430;2023-01-29T15:35:58;6.60;99.90
44190;DHT22;29856;52.144;5.430;2023-01-29T15:38:24;6.60;99.90
44190;DHT22;29856;52.144;5.430;2023-01-29T15:40:59;6.50;99.90
44190;DHT22;29856;52.144;5.430;2023-01-29T15:43:27;6.50;99.90
44190;DHT22;29856;52.144;5.430;2023-01-29T15:45:58;6.50;99.90
44190;DHT22;29856;52.144;5.430;2023-01-29T15:48:41;6.50;99.90
44190;DHT22;29856;52.144;5.430;2023-01-29T15:51:12;6.50;99.90
44190;DHT22;29856;52.144;5.430;2023-01-29T15:56:17;6.50;99.90
44190;DHT22;29856;52.144;5.430;2023-01-29T15:58:47;6.50;99.90
44190;DHT22;29856;52.144;5.430;2023-01-29T16:01:13;6.50;99.90
44190;DHT22;29856;52.144;5.430;2023-01-29T16:03:38;6.50;99.90
44190;DHT22;29856;52.144;5.430;2023-01-29T16:06:04;6.50;99.90
44190;DHT22;29856;52.144;5.430;2023-01-29T16:08:32;6.60;99.90
44190;DHT22;29856;52.144;5.430;2023-01-29T16:11:00;6.50;99.90
44190;DHT22;29856;52.144;5.430;2023-01-29T16:13:31;6.50;99.90
44190;DHT22;29856;52.144;5.430;2023-01-29T16:18:37;6.60;99.90
44190;DHT22;29856;52.144;5.430;2023-01-29T16:21:08;6.60;99.90
44190;DHT22;29856;52.144;5.430;2023-01-29T16:23:40;6.50;99.90
44190;DHT22;29856;52.144;5.430;2023-01-29T16:26:07;6.50;99.90
44190;DHT22;29856;52.144;5.430;2023-01-29T16:28:40;6.40;99.90
44190;DHT22;29856;52.144;5.430;2023-01-29T16:31:05;6.40;99.90
44190;DHT22;29856;52.144;5.430;2023-01-29T16:33:35;6.40;99.90
44190;DHT22;29856;52.144;5.430;2023-01-29T16:36:03;6.40;99.90
44190;DHT22;29856;52.144;5.430;2023-01-29T16:38:34;6.40;99.90
44190;DHT22;29856;52.144;5.430;2023-01-29T16:48:55;6.20;99.90
44190;DHT22;29856;52.144;5.430;2023-01-29T16:51:25;6.20;99.90
44190;DHT22;29856;52.144;5.430;2023-01-29T16:53:57;6.20;99.90
44190;DHT22;29856;52.144;5.430;2023-01-29T16:56:24;6.10;99.90
44190;DHT22;29856;52.144;5.430;2023-01-29T16:58:51;6.10;99.90
44190;DHT22;29856;52.144;5.430;2023-01-29T17:01:18;6.10;99.90
44190;DHT22;29856;52.144;5.430;2023-01-29T17:04:12;6.20;99.90
44190;DHT22;29856;52.144;5.430;2023-01-29T17:06:35;6.20;99.90
44190;DHT22;29856;52.144;5.430;2023-01-29T17:09:02;6.20;99.90
44190;DHT22;29856;52.144;5.430;2023-01-29T17:11:37;6.20;99.90
44190;DHT22;29856;52.144;5.430;2023-01-29T17:14:05;6.20;99.90
44190;DHT22;29856;52.144;5.430;2023-01-29T17:16:33;6.20;99.90
44190;DHT22;29856;52.144;5.430;2023-01-29T17:18:59;6.10;99.90
44190;DHT22;29856;52.144;5.430;2023-01-29T17:21:25;6.00;99.90
44190;DHT22;29856;52.144;5.430;2023-01-29T17:23:51;6.10;99.90
44190;DHT22;29856;52.144;5.430;2023-01-29T17:26:17;6.00;99.90
44190;DHT22;29856;52.144;5.430;2023-01-29T17:28:43;6.00;99.90
44190;DHT22;29856;52.144;5.430;2023-01-29T17:31:10;5.90;99.90
44190;DHT22;29856;52.144;5.430;2023-01-29T17:33:39;5.90;99.90
44190;DHT22;29856;52.144;5.430;2023-01-29T17:36:15;5.90;99.90
44190;DHT22;29856;52.144;5.430;2023-01-29T17:38:41;5.90;99.90
44190;DHT22;29856;52.144;5.430;2023-01-29T17:41:16;5.90;99.90
44190;DHT22;29856;52.144;5.430;2023-01-29T17:43:44;5.90;99.90
44190;DHT22;29856;52.144;5.430;2023-01-29T17:46:14;5.90;99.90
44190;DHT22;29856;52.144;5.430;2023-01-29T17:48:40;5.90;99.90
44190;DHT22;29856;52.144;5.430;2023-01-29T17:51:11;5.90;99.90
44190;DHT22;29856;52.144;5.430;2023-01-29T17:53:37;5.90;99.90
44190;DHT22;29856;52.144;5.430;2023-01-29T17:56:02;5.90;99.90
44190;DHT22;29856;52.144;5.430;2023-01-29T17:58:28;5.90;99.90
44190;DHT22;29856;52.144;5.430;2023-01-29T18:00:54;5.90;99.90
44190;DHT22;29856;52.144;5.430;2023-01-29T18:03:20;6.00;99.90
44190;DHT22;29856;52.144;5.430;2023-01-29T18:05:47;5.90;99.90
44190;DHT22;29856;52.144;5.430;2023-01-29T18:08:17;5.90;99.90
44190;DHT22;29856;52.144;5.430;2023-01-29T18:10:43;5.90;99.90
44190;DHT22;29856;52.144;5.430;2023-01-29T18:13:09;5.90;99.90